Time;durP1;ratioP1;P1;durP2;ratioP2;P2;SDS_P1;SDS_P2;PMS_P1;PMS_P2;Temp;Humidity;BMP_temperature;BMP_pressure;BME280_temperature;BME280_humidity;BME280_pressure;Samples;Min_cycle;Max_cycle;Signal;HPM_P1;HPM_P2
2021/05/03 00:00:32;;;;;;;2.45;2.25;;;6.30;99.90;;;;;;5028239;28;20183;-82
2021/05/03 00:03:09;;;;;;;2.92;2.33;;;6.30;99.90;;;;;;5006948;28;20174;-82
2021/05/03 00:05:45;;;;;;;3.25;2.30;;;6.30;99.90;;;;;;5024169;28;20179;-82
2021/05/03 00:08:13;;;;;;;3.78;3.10;;;6.30;99.90;;;;;;5022290;28;20220;-81
2021/05/03 00:10:42;;;;;;;3.00;2.70;;;6.30;99.90;;;;;;5021706;28;20181;-82
2021/05/03 00:13:09;;;;;;;2.33;2.08;;;6.30;99.90;;;;;;5022985;28;20190;-83
2021/05/03 00:15:40;;;;;;;4.40;3.20;;;6.30;99.90;;;;;;5023947;28;20205;-82
2021/05/03 00:18:08;;;;;;;3.95;2.65;;;6.40;99.90;;;;;;5022096;28;20209;-82
2021/05/03 00:20:36;;;;;;;3.13;2.83;;;6.30;99.90;;;;;;5005629;28;20202;-80
2021/05/03 00:23:03;;;;;;;2.42;2.22;;;6.30;99.90;;;;;;5023280;28;20186;-82
2021/05/03 00:25:31;;;;;;;4.38;2.88;;;6.30;99.90;;;;;;5022079;28;20185;-82
2021/05/03 00:27:58;;;;;;;3.10;2.28;;;6.30;99.90;;;;;;5023034;28;20210;-82
2021/05/03 00:30:28;;;;;;;4.07;3.50;;;6.30;99.90;;;;;;5022447;28;20664;-82
2021/05/03 00:32:56;;;;;;;3.53;3.22;;;6.30;99.90;;;;;;5021188;28;20194;-83
2021/05/03 00:35:25;;;;;;;3.58;3.28;;;6.30;99.90;;;;;;5022561;28;20234;-82
2021/05/03 00:37:55;;;;;;;3.15;2.70;;;6.30;99.90;;;;;;5066118;22;20233;-71
2021/05/03 00:40:22;;;;;;;3.90;3.50;;;6.40;99.90;;;;;;5014539;28;20266;-69
2021/05/03 00:42:49;;;;;;;3.70;2.75;;;6.30;99.90;;;;;;5013785;28;20714;-68
2021/05/03 00:45:21;;;;;;;2.50;1.73;;;6.30;99.90;;;;;;5014229;28;20190;-69
2021/05/03 00:47:48;;;;;;;5.35;2.88;;;6.30;99.90;;;;;;5015056;28;20206;-69
2021/05/03 00:50:18;;;;;;;4.75;2.78;;;6.30;99.90;;;;;;5013155;28;20233;-69
2021/05/03 00:52:45;;;;;;;3.88;2.42;;;6.20;99.90;;;;;;5014347;28;20186;-70
2021/05/03 00:55:14;;;;;;;3.13;2.60;;;6.20;99.90;;;;;;5014796;28;20181;-68
2021/05/03 00:57:41;;;;;;;4.13;2.10;;;6.20;99.90;;;;;;5014206;28;20230;-68
2021/05/03 01:00:11;;;;;;;2.90;2.70;;;6.20;99.90;;;;;;5013444;28;20202;-70
2021/05/03 01:02:39;;;;;;;3.33;2.90;;;6.20;99.90;;;;;;5013322;28;20259;-68
2021/05/03 01:05:08;;;;;;;2.70;1.92;;;6.20;99.90;;;;;;4995679;28;20190;-69
2021/05/03 01:07:36;;;;;;;8.10;1.85;;;6.20;99.90;;;;;;5013033;28;20225;-69
2021/05/03 01:10:04;;;;;;;3.13;2.53;;;6.20;99.90;;;;;;5011901;28;20186;-69
2021/05/03 01:12:32;;;;;;;2.75;2.50;;;6.20;99.90;;;;;;5012871;28;20206;-71
2021/05/03 01:14:59;;;;;;;10.77;2.13;;;6.20;99.90;;;;;;5012862;28;20272;-68
2021/05/03 01:17:31;;;;;;;3.55;3.22;;;6.20;99.90;;;;;;5013250;28;20432;-69
2021/05/03 01:19:58;;;;;;;2.10;1.83;;;6.20;99.90;;;;;;5012830;28;20250;-68
2021/05/03 01:22:26;;;;;;;3.63;2.20;;;6.20;99.90;;;;;;5012966;28;20202;-69
2021/05/03 01:24:53;;;;;;;2.15;2.00;;;6.20;99.90;;;;;;5012535;28;20210;-67
2021/05/03 01:27:20;;;;;;;2.78;1.92;;;6.20;99.90;;;;;;4994662;28;20554;-69
2021/05/03 01:29:47;;;;;;;2.63;2.13;;;6.20;99.90;;;;;;5012317;28;20206;-70
2021/05/03 01:32:14;;;;;;;2.28;1.88;;;6.20;99.90;;;;;;5012691;28;20205;-68
2021/05/03 01:34:43;;;;;;;4.57;2.17;;;6.20;99.90;;;;;;5012576;28;20198;-69
2021/05/03 01:37:13;;;;;;;5.15;1.50;;;6.20;99.90;;;;;;5012252;28;20181;-69
2021/05/03 01:39:42;;;;;;;1.92;1.50;;;6.20;99.90;;;;;;5012262;28;20216;-68
2021/05/03 01:42:09;;;;;;;3.15;2.30;;;6.20;99.90;;;;;;5004054;28;20197;-67
2021/05/03 01:44:37;;;;;;;2.45;2.25;;;6.20;99.90;;;;;;5012414;28;20202;-68
2021/05/03 01:47:05;;;;;;;3.72;1.95;;;6.20;99.90;;;;;;5012477;28;20181;-69
2021/05/03 01:49:36;;;;;;;3.63;2.50;;;6.10;99.90;;;;;;5011931;28;20237;-69
2021/05/03 01:52:04;;;;;;;3.35;3.03;;;6.10;99.90;;;;;;5011973;28;20221;-69
2021/05/03 01:54:32;;;;;;;2.38;2.17;;;6.00;99.90;;;;;;5011607;28;20171;-70
2021/05/03 01:57:00;;;;;;;8.40;2.75;;;5.90;99.90;;;;;;5012566;28;20578;-69
2021/05/03 01:59:33;;;;;;;2.55;2.33;;;5.80;99.90;;;;;;5012303;28;20695;-69
2021/05/03 02:02:00;;;;;;;3.75;2.38;;;5.80;99.90;;;;;;5012369;28;20189;-69
2021/05/03 02:04:27;;;;;;;4.90;2.72;;;5.80;99.90;;;;;;5011853;28;20226;-68
2021/05/03 02:06:54;;;;;;;3.90;2.20;;;5.70;99.90;;;;;;5012166;28;20201;-68
2021/05/03 02:09:21;;;;;;;5.68;3.17;;;5.70;99.90;;;;;;5011635;28;20221;-69
2021/05/03 02:11:48;;;;;;;3.08;2.60;;;5.70;99.90;;;;;;5012100;28;20699;-68
2021/05/03 02:14:16;;;;;;;3.92;3.10;;;5.60;99.90;;;;;;5012517;28;20631;-68
2021/05/03 02:16:44;;;;;;;6.72;3.65;;;5.60;99.90;;;;;;5012415;28;20717;-69
2021/05/03 02:19:11;;;;;;;3.75;2.58;;;5.60;99.90;;;;;;5012358;28;20237;-70
2021/05/03 02:21:39;;;;;;;4.97;3.47;;;5.60;99.90;;;;;;4994374;28;20193;-69
2021/05/03 02:24:07;;;;;;;3.38;3.08;;;5.60;99.90;;;;;;5011911;28;20189;-68
2021/05/03 02:26:34;;;;;;;2.70;2.50;;;5.60;99.90;;;;;;4994205;28;20277;-70
2021/05/03 02:29:02;;;;;;;4.25;2.72;;;5.50;99.90;;;;;;5011357;28;20222;-68
2021/05/03 02:31:30;;;;;;;3.13;2.83;;;5.50;99.90;;;;;;5011588;28;20185;-68
2021/05/03 02:33:57;;;;;;;3.38;2.78;;;5.40;99.90;;;;;;5011583;28;20238;-68
2021/05/03 02:36:25;;;;;;;5.88;3.10;;;5.30;99.90;;;;;;5011898;28;20557;-68
2021/05/03 02:38:52;;;;;;;3.05;2.75;;;5.20;99.90;;;;;;5011979;28;20205;-69
2021/05/03 02:41:19;;;;;;;2.78;2.50;;;5.10;99.90;;;;;;5011930;28;20178;-68
2021/05/03 02:43:47;;;;;;;4.25;2.95;;;5.00;99.90;;;;;;5011558;28;20611;-69
2021/05/03 02:46:15;;;;;;;2.65;2.45;;;5.00;99.90;;;;;;5011631;28;20174;-68
2021/05/03 02:48:44;;;;;;;6.80;3.65;;;5.10;99.90;;;;;;5011792;28;20226;-69
2021/05/03 02:51:14;;;;;;;9.48;2.47;;;5.10;99.90;;;;;;5013096;28;20289;-69
2021/05/03 02:53:41;;;;;;;5.38;3.83;;;5.10;99.90;;;;;;5020983;28;20194;-69
2021/05/03 02:56:09;;;;;;;4.75;3.95;;;5.10;99.90;;;;;;5023405;28;20185;-68
2021/05/03 02:58:36;;;;;;;6.22;4.50;;;5.00;99.90;;;;;;5016694;28;20709;-68
2021/05/03 03:01:03;;;;;;;11.77;3.65;;;4.90;99.90;;;;;;5015191;28;20847;-69
2021/05/03 03:03:31;;;;;;;3.33;2.30;;;4.90;99.90;;;;;;5017380;28;20174;-68
2021/05/03 03:05:59;;;;;;;2.67;2.13;;;4.80;99.90;;;;;;5013336;28;20193;-69
2021/05/03 03:08:26;;;;;;;3.67;3.33;;;4.70;99.90;;;;;;4995105;28;20222;-69
2021/05/03 03:10:54;;;;;;;2.95;2.30;;;4.70;99.90;;;;;;5011457;28;20292;-68
2021/05/03 03:13:23;;;;;;;3.28;2.97;;;4.60;99.90;;;;;;5012110;28;20258;-67
2021/05/03 03:15:53;;;;;;;4.05;2.88;;;4.60;99.90;;;;;;5012029;28;20221;-69
2021/05/03 03:18:20;;;;;;;2.42;2.22;;;4.70;99.90;;;;;;5011922;28;20206;-68
2021/05/03 03:20:48;;;;;;;5.82;3.33;;;4.70;99.90;;;;;;5011872;28;20634;-67
2021/05/03 03:23:16;;;;;;;3.65;3.08;;;4.70;99.90;;;;;;5011891;28;20190;-68
2021/05/03 03:25:43;;;;;;;2.40;2.20;;;4.70;99.90;;;;;;4994618;28;20289;-68
2021/05/03 03:28:13;;;;;;;2.47;1.98;;;4.70;99.90;;;;;;5011795;28;20675;-68
2021/05/03 03:30:40;;;;;;;4.88;2.05;;;4.70;99.90;;;;;;5010085;28;20233;-69
2021/05/03 03:33:08;;;;;;;5.85;3.30;;;4.80;99.90;;;;;;5011284;28;20632;-69
2021/05/03 03:35:35;;;;;;;3.97;2.83;;;4.70;99.90;;;;;;5012141;28;20675;-67
2021/05/03 03:38:02;;;;;;;3.28;2.88;;;4.80;99.90;;;;;;5011717;28;20551;-68
2021/05/03 03:40:30;;;;;;;2.10;1.90;;;4.80;99.90;;;;;;4993568;28;20253;-68
2021/05/03 03:42:58;;;;;;;4.00;2.70;;;4.80;99.90;;;;;;5010984;28;20190;-69
2021/05/03 03:45:25;;;;;;;3.38;1.90;;;4.80;99.90;;;;;;5011257;28;20270;-69
2021/05/03 03:47:52;;;;;;;2.58;2.00;;;4.90;99.90;;;;;;5012039;28;20209;-69
2021/05/03 03:50:19;;;;;;;3.45;2.92;;;4.80;99.90;;;;;;5012078;28;20226;-68
2021/05/03 03:52:47;;;;;;;2.90;2.70;;;4.80;99.90;;;;;;5012306;28;20666;-69
2021/05/03 03:55:14;;;;;;;2.97;2.67;;;4.80;99.90;;;;;;5012973;28;20619;-68
2021/05/03 03:57:42;;;;;;;3.00;1.65;;;4.80;99.90;;;;;;5012391;28;20174;-69
2021/05/03 04:00:10;;;;;;;5.00;2.50;;;4.70;99.90;;;;;;5003509;28;20186;-68
2021/05/03 04:02:37;;;;;;;2.70;2.40;;;4.70;99.90;;;;;;5011213;28;20175;-70
2021/05/03 04:05:16;;;;;;;3.60;2.55;;;4.70;99.90;;;;;;5011262;28;20730;-68
2021/05/03 04:07:48;;;;;;;6.05;2.75;;;4.60;99.90;;;;;;5011385;28;20249;-69
2021/05/03 04:10:26;;;;;;;2.90;2.60;;;4.50;99.90;;;;;;4993397;28;20252;-70
2021/05/03 04:13:17;;;;;;;9.02;2.65;;;4.40;99.90;;;;;;5011572;28;20183;-70
2021/05/03 04:21:25;;;;;;;2.90;2.50;;;4.50;99.90;;;;;;4968484;28;20286;-68
2021/05/03 04:23:57;;;;;;;3.58;2.30;;;4.50;99.90;;;;;;5014557;28;20210;-70
2021/05/03 04:26:25;;;;;;;3.08;2.50;;;4.50;99.90;;;;;;5014958;28;20198;-70
2021/05/03 04:28:55;;;;;;;4.10;2.90;;;4.60;99.90;;;;;;5015017;28;20555;-69
2021/05/03 04:31:23;;;;;;;3.67;3.28;;;4.60;99.90;;;;;;5014809;28;20547;-68
2021/05/03 04:33:51;;;;;;;3.80;2.72;;;4.70;99.90;;;;;;5014850;28;20189;-68
2021/05/03 04:36:19;;;;;;;4.03;2.35;;;4.80;99.90;;;;;;5015332;28;20197;-68
2021/05/03 04:38:47;;;;;;;3.42;3.13;;;5.00;99.90;;;;;;5014768;28;20721;-69
2021/05/03 04:41:14;;;;;;;2.97;2.00;;;5.10;99.90;;;;;;5014475;28;20249;-67
2021/05/03 04:43:42;;;;;;;5.43;2.55;;;5.20;99.90;;;;;;5014305;28;20182;-70
2021/05/03 04:46:10;;;;;;;3.47;2.20;;;5.30;99.90;;;;;;5014993;28;20624;-68
2021/05/03 04:48:37;;;;;;;3.72;2.50;;;5.30;99.90;;;;;;5014760;28;20216;-69
2021/05/03 04:51:05;;;;;;;3.15;2.55;;;5.40;99.90;;;;;;5015074;28;20777;-69
2021/05/03 04:53:32;;;;;;;3.60;2.97;;;5.50;99.90;;;;;;5014432;28;20174;-69
2021/05/03 04:56:01;;;;;;;3.17;2.88;;;5.40;99.90;;;;;;5015086;28;20318;-68
2021/05/03 04:58:28;;;;;;;5.55;2.75;;;5.20;99.90;;;;;;5014631;28;20216;-70
2021/05/03 05:00:56;;;;;;;6.32;2.95;;;5.20;99.90;;;;;;5014517;28;20182;-69
2021/05/03 05:03:24;;;;;;;6.70;2.08;;;5.20;99.90;;;;;;5013181;28;20201;-72
2021/05/03 05:05:53;;;;;;;2.20;1.90;;;5.30;99.90;;;;;;5013590;28;20564;-69
2021/05/03 05:08:21;;;;;;;3.67;2.55;;;5.50;99.90;;;;;;5013671;28;20751;-68
2021/05/03 05:10:48;;;;;;;4.45;3.08;;;5.50;99.90;;;;;;4995705;28;20251;-71
2021/05/03 05:13:15;;;;;;;3.22;2.65;;;5.40;99.90;;;;;;4995663;28;20677;-68
2021/05/03 05:15:46;;;;;;;3.30;2.92;;;5.40;99.90;;;;;;5014330;28;20209;-68
2021/05/03 05:18:14;;;;;;;3.00;2.45;;;5.50;99.90;;;;;;5033195;28;20205;-68
2021/05/03 05:20:43;;;;;;;3.53;2.67;;;5.50;99.90;;;;;;5033154;28;20686;-69
2021/05/03 05:23:11;;;;;;;9.93;2.95;;;5.50;99.90;;;;;;5024804;28;20272;-69
2021/05/03 05:25:39;;;;;;;2.50;2.30;;;5.50;99.90;;;;;;5033172;28;20182;-70
2021/05/03 05:28:06;;;;;;;3.60;1.73;;;5.70;99.90;;;;;;5032346;28;20209;-69
2021/05/03 05:30:33;;;;;;;2.67;2.47;;;5.80;1.00;;;;;;5032627;28;20186;-69
2021/05/03 05:33:00;;;;;;;3.75;2.20;;;5.80;1.00;;;;;;5032279;28;20170;-69
2021/05/03 05:35:28;;;;;;;4.30;2.15;;;5.80;1.00;;;;;;5032510;28;20186;-69
2021/05/03 05:37:56;;;;;;;2.70;2.00;;;5.80;99.90;;;;;;5032819;28;20209;-70
2021/05/03 05:40:23;;;;;;;2.78;2.13;;;5.90;1.00;;;;;;5021329;28;20193;-69
2021/05/03 05:42:50;;;;;;;2.90;1.83;;;5.90;1.00;;;;;;5012700;28;20190;-70
2021/05/03 05:45:25;;;;;;;2.30;2.10;;;5.70;1.00;;;;;;5012350;28;20602;-71
2021/05/03 05:47:53;;;;;;;3.33;2.45;;;5.80;99.90;;;;;;5013015;28;20210;-70
2021/05/03 05:50:20;;;;;;;4.10;2.05;;;5.90;99.90;;;;;;5013339;28;20210;-70
2021/05/03 05:52:48;;;;;;;3.42;2.90;;;5.80;99.90;;;;;;4995216;28;20190;-71
2021/05/03 05:55:16;;;;;;;1.80;1.52;;;5.70;1.00;;;;;;5012989;28;20233;-69
2021/05/03 05:57:43;;;;;;;2.85;1.60;;;5.80;99.90;;;;;;5013052;28;20186;-70
2021/05/03 06:00:11;;;;;;;2.55;1.88;;;5.80;99.90;;;;;;5013114;28;20182;-69
2021/05/03 06:02:43;;;;;;;4.22;2.90;;;6.00;99.90;;;;;;5012868;28;20639;-69
2021/05/03 06:05:11;;;;;;;4.03;2.70;;;5.90;1.00;;;;;;5012828;28;20177;-69
2021/05/03 06:07:38;;;;;;;3.47;2.55;;;6.00;99.90;;;;;;5012331;28;20212;-69
2021/05/03 06:10:08;;;;;;;2.35;2.13;;;6.00;1.00;;;;;;5013090;28;20685;-68
2021/05/03 06:12:36;;;;;;;7.78;4.45;;;6.40;66.90;;;;;;5011931;28;20698;-69
2021/05/03 06:15:07;;;;;;;3.05;2.17;;;6.90;1.00;;;;;;5012516;28;20645;-69
2021/05/03 06:17:35;;;;;;;3.65;3.08;;;6.80;99.90;;;;;;5020029;28;20200;-69
2021/05/03 06:20:04;;;;;;;3.17;2.20;;;6.80;99.90;;;;;;5033982;28;20292;-69
2021/05/03 06:22:35;;;;;;;3.35;2.60;;;6.80;99.90;;;;;;5034578;28;20209;-69
2021/05/03 06:25:04;;;;;;;1.83;1.60;;;6.70;94.80;;;;;;5033085;28;20259;-69
2021/05/03 06:27:31;;;;;;;3.60;2.17;;;6.80;99.90;;;;;;5033481;28;20174;-69
2021/05/03 06:29:59;;;;;;;1.55;1.20;;;7.10;99.90;;;;;;5033218;28;20223;-69
2021/05/03 06:32:28;;;;;;;2.85;2.08;;;7.10;99.90;;;;;;5032486;28;20185;-68
2021/05/03 06:34:55;;;;;;;3.22;2.17;;;7.20;99.90;;;;;;5032557;28;20257;-69
2021/05/03 06:37:22;;;;;;;2.58;2.13;;;7.20;1.00;;;;;;5031777;28;20658;-69
2021/05/03 06:39:50;;;;;;;3.00;1.88;;;7.40;99.90;;;;;;5031433;28;20308;-69
2021/05/03 06:42:17;;;;;;;2.97;2.10;;;7.30;99.90;;;;;;5031681;28;20239;-70
2021/05/03 06:44:45;;;;;;;1.92;1.70;;;7.40;1.00;;;;;;5031554;28;20196;-69
2021/05/03 06:47:15;;;;;;;3.80;1.70;;;7.50;99.90;;;;;;5031517;28;20181;-68
2021/05/03 06:49:43;;;;;;;3.17;1.95;;;7.60;99.90;;;;;;5031835;28;20704;-70
2021/05/03 06:52:10;;;;;;;2.38;2.05;;;7.80;99.90;;;;;;5015460;28;20256;-70
2021/05/03 06:54:39;;;;;;;2.05;1.85;;;8.00;99.90;;;;;;5078818;22;20213;-82
2021/05/03 06:57:13;;;;;;;2.20;1.85;;;8.20;99.90;;;;;;5045066;28;20662;-83
2021/05/03 06:59:44;;;;;;;2.90;2.70;;;8.10;99.90;;;;;;5045649;28;20227;-86
2021/05/03 11:28:46;;;;;;;2.70;1.03;;;11.60;99.90;;;;;;4890695;29;20267;-83
2021/05/03 12:13:31;;;;;;;2.00;0.87;;;12.80;99.90;;;;;;5012388;28;20532;-70
2021/05/03 12:15:59;;;;;;;1.30;0.90;;;12.90;99.90;;;;;;5014871;28;20421;-68
2021/05/03 12:18:27;;;;;;;1.87;1.00;;;13.00;99.90;;;;;;5014888;28;20453;-66
2021/05/03 12:20:54;;;;;;;1.50;1.10;;;12.90;99.90;;;;;;5014643;28;20417;-67
2021/05/03 12:23:25;;;;;;;1.83;1.00;;;12.70;99.90;;;;;;5014974;28;20401;-70
2021/05/03 12:25:54;;;;;;;0.97;0.70;;;12.50;99.90;;;;;;5015149;28;20474;-70
2021/05/03 12:28:23;;;;;;;1.40;1.20;;;12.40;99.90;;;;;;5014996;28;20423;-70
2021/05/03 12:30:55;;;;;;;2.37;1.07;;;12.30;99.90;;;;;;5014985;28;20443;-69
2021/05/03 12:33:23;;;;;;;1.90;1.13;;;12.30;99.90;;;;;;5013362;28;20410;-70
2021/05/03 12:35:54;;;;;;;2.20;0.93;;;12.30;99.90;;;;;;5014597;28;20432;-69
2021/05/03 12:38:24;;;;;;;2.20;0.87;;;11.90;99.90;;;;;;5013401;28;20423;-70
2021/05/03 12:40:51;;;;;;;1.50;1.15;;;11.60;99.90;;;;;;5014463;28;20388;-70
2021/05/03 12:43:22;;;;;;;1.83;1.00;;;11.80;99.90;;;;;;5014326;28;20171;-70
2021/05/03 12:46:00;;;;;;;6.73;1.23;;;12.00;99.90;;;;;;5014132;28;20396;-70
2021/05/03 12:48:35;;;;;;;2.90;1.53;;;12.20;99.90;;;;;;5014002;28;20423;-68
2021/05/03 12:51:30;;;;;;;1.38;0.80;;;11.90;99.90;;;;;;5014248;28;20379;-69
2021/05/03 12:54:06;;;;;;;1.40;1.10;;;11.60;99.90;;;;;;5014296;28;20182;-69
2021/05/03 12:56:39;;;;;;;1.33;1.10;;;11.50;99.90;;;;;;5014523;28;20862;-69
2021/05/03 12:59:16;;;;;;;3.70;1.30;;;11.60;99.90;;;;;;5014392;28;20444;-69
2021/05/03 13:01:49;;;;;;;1.50;1.40;;;11.40;99.90;;;;;;5014026;28;20405;-69
2021/05/03 13:04:41;;;;;;;1.77;1.05;;;11.30;99.90;;;;;;5013737;28;20174;-69
2021/05/03 13:07:42;;;;;;;1.85;1.20;;;11.30;99.90;;;;;;5013189;28;20182;-69
2021/05/03 13:10:32;;;;;;;1.85;1.13;;;11.30;99.90;;;;;;5013557;28;20197;-70
2021/05/03 13:30:02;;;;;;;1.70;1.60;;;11.80;1.00;;;;;;5013308;28;20221;-69
2021/05/03 13:32:31;;;;;;;2.13;1.93;;;11.90;1.00;;;;;;5013083;28;20894;-69
2021/05/03 13:34:59;;;;;;;2.13;1.57;;;11.60;1.00;;;;;;5013309;28;20427;-69
2021/05/03 13:37:27;;;;;;;2.45;2.00;;;11.50;1.00;;;;;;5013329;28;20934;-68
2021/05/03 13:40:10;;;;;;;2.03;1.80;;;11.60;1.00;;;;;;5015762;28;20209;-68
2021/05/03 13:42:38;;;;;;;2.25;1.98;;;11.40;99.90;;;;;;5013268;28;20576;-67
2021/05/03 13:45:06;;;;;;;1.70;1.30;;;11.00;99.90;;;;;;5013844;28;20186;-69
2021/05/03 13:47:34;;;;;;;2.55;1.98;;;11.10;99.90;;;;;;5014362;28;20201;-68
2021/05/03 13:50:02;;;;;;;2.80;2.58;;;11.20;1.00;;;;;;5013172;28;20292;-67
2021/05/03 13:52:29;;;;;;;2.90;2.70;;;11.20;1.00;;;;;;5015959;28;20600;-69
2021/05/03 13:54:56;;;;;;;3.67;2.85;;;11.00;1.00;;;;;;5015931;28;20192;-67
2021/05/03 13:57:24;;;;;;;4.32;2.97;;;10.80;99.90;;;;;;5016071;28;20190;-68
2021/05/03 13:59:51;;;;;;;6.68;3.17;;;10.80;99.90;;;;;;5014815;28;20209;-68
2021/05/03 14:02:19;;;;;;;4.03;2.78;;;10.90;99.90;;;;;;4996688;28;20305;-67
2021/05/03 14:04:47;;;;;;;3.97;2.95;;;10.60;99.90;;;;;;5013104;28;20186;-67
2021/05/03 14:07:14;;;;;;;4.57;3.47;;;10.60;1.00;;;;;;5012387;28;20174;-66
2021/05/03 14:09:42;;;;;;;5.28;4.75;;;10.20;1.00;;;;;;5012543;28;20809;-67
2021/05/03 14:12:09;;;;;;;3.35;3.05;;;9.80;32.60;;;;;;5012320;28;20190;-66
2021/05/03 14:14:38;;;;;;;5.35;3.80;;;9.80;57.90;;;;;;5012268;28;20212;-68
2021/05/03 14:17:07;;;;;;;5.95;4.05;;;10.00;99.90;;;;;;5012179;28;20200;-69
2021/05/03 14:19:41;;;;;;;3.85;3.55;;;10.30;99.90;;;;;;5012977;28;20244;-71
2021/05/03 14:22:09;;;;;;;3.65;3.20;;;10.80;99.90;;;;;;5012630;28;20189;-66
2021/05/03 14:24:36;;;;;;;4.35;3.83;;;11.00;99.90;;;;;;5012273;28;20189;-69
2021/05/03 14:27:04;;;;;;;6.80;2.72;;;11.00;99.90;;;;;;5012168;28;20241;-71
2021/05/03 14:29:35;;;;;;;3.57;3.27;;;11.30;99.90;;;;;;5011909;28;20210;-71
2021/05/03 14:32:08;;;;;;;3.37;3.07;;;11.60;99.90;;;;;;5011858;28;20429;-68
2021/05/03 14:34:35;;;;;;;3.63;3.17;;;12.00;99.90;;;;;;5011797;28;20417;-68
2021/05/03 14:37:03;;;;;;;4.27;3.87;;;11.80;99.90;;;;;;5011965;28;20542;-68
2021/05/03 14:39:31;;;;;;;4.43;3.80;;;11.80;99.90;;;;;;5011604;28;20502;-68
2021/05/03 14:41:58;;;;;;;3.33;2.93;;;11.60;99.90;;;;;;5011268;28;20392;-68
2021/05/03 14:44:26;;;;;;;3.85;3.17;;;11.50;99.90;;;;;;4994157;28;20779;-67
2021/05/03 14:46:55;;;;;;;8.00;3.20;;;11.30;99.90;;;;;;5011851;28;20541;-66
2021/05/03 14:49:33;;;;;;;3.33;2.80;;;11.50;99.90;;;;;;5011323;28;20435;-68
2021/05/03 14:52:02;;;;;;;3.93;3.53;;;11.80;99.90;;;;;;5010496;28;20509;-68
2021/05/03 14:54:34;;;;;;;6.30;3.47;;;12.20;99.90;;;;;;4993645;28;20969;-70
2021/05/03 14:57:03;;;;;;;3.57;3.20;;;11.90;99.90;;;;;;5011035;28;20435;-70
2021/05/03 14:59:33;;;;;;;3.37;3.07;;;12.30;99.90;;;;;;5011212;28;20441;-68
2021/05/03 15:02:00;;;;;;;4.03;2.93;;;12.50;99.90;;;;;;5010594;28;20409;-67
2021/05/03 15:04:29;;;;;;;4.90;3.83;;;12.70;99.90;;;;;;5010825;28;20445;-67
2021/05/03 15:07:00;;;;;;;5.37;2.37;;;12.90;99.90;;;;;;5011030;28;20410;-71
2021/05/03 15:09:30;;;;;;;3.83;3.43;;;13.20;99.90;;;;;;5010819;28;20492;-70
2021/05/03 15:11:58;;;;;;;4.47;3.40;;;12.70;99.90;;;;;;5010672;28;20436;-68
2021/05/03 15:14:35;;;;;;;4.67;3.53;;;13.00;99.90;;;;;;5011033;28;20415;-68
2021/05/03 15:17:21;;;;;;;6.40;3.13;;;13.60;99.90;;;;;;5010934;28;20395;-67
2021/05/03 15:19:53;;;;;;;4.17;3.07;;;13.70;99.90;;;;;;5010600;28;20456;-70
2021/05/03 15:22:20;;;;;;;3.73;3.43;;;13.00;99.90;;;;;;5011350;28;20380;-68
2021/05/03 15:24:48;;;;;;;3.00;2.70;;;12.90;99.90;;;;;;5011057;28;20413;-68
2021/05/03 15:27:21;;;;;;;4.10;3.70;;;13.10;99.90;;;;;;5011126;28;20813;-66
2021/05/03 15:30:03;;;;;;;4.27;3.87;;;13.30;99.90;;;;;;5010872;28;20468;-67
2021/05/03 15:32:41;;;;;;;3.80;3.40;;;12.70;99.90;;;;;;5010069;28;20450;-67
2021/05/03 15:35:10;;;;;;;4.27;3.23;;;12.60;99.90;;;;;;5011403;28;20388;-67
2021/05/03 15:37:37;;;;;;;4.20;3.23;;;12.60;99.90;;;;;;5010259;28;20520;-70
2021/05/03 15:40:05;;;;;;;4.07;3.67;;;12.90;99.90;;;;;;5010838;28;20404;-68
2021/05/03 15:42:33;;;;;;;5.03;3.50;;;13.20;99.90;;;;;;5010283;28;20852;-67
2021/05/03 15:45:00;;;;;;;3.53;3.23;;;13.10;99.90;;;;;;5010458;28;20425;-67
2021/05/03 15:47:28;;;;;;;4.83;3.40;;;13.10;99.90;;;;;;5010500;28;20444;-68
2021/05/03 15:49:55;;;;;;;5.10;4.30;;;13.00;99.90;;;;;;5010537;28;21180;-68
2021/05/03 15:52:23;;;;;;;8.00;4.67;;;13.40;99.90;;;;;;5010763;28;20388;-68
2021/05/03 15:54:50;;;;;;;3.70;3.40;;;12.90;99.90;;;;;;5010362;28;20425;-67
2021/05/03 15:57:18;;;;;;;3.63;3.30;;;12.70;99.90;;;;;;5010415;28;20391;-71
2021/05/03 15:59:45;;;;;;;4.83;4.37;;;12.60;99.90;;;;;;5009059;28;20974;-67
2021/05/03 16:02:12;;;;;;;5.83;4.23;;;12.30;99.90;;;;;;5010091;28;20413;-68
2021/05/03 16:04:40;;;;;;;4.47;3.80;;;12.20;99.90;;;;;;5010191;28;20436;-71
2021/05/03 16:07:07;;;;;;;7.60;3.77;;;12.40;99.90;;;;;;5010800;28;20429;-67
2021/05/03 16:09:35;;;;;;;5.80;3.20;;;12.80;99.90;;;;;;5010223;28;20440;-68
2021/05/03 16:12:03;;;;;;;4.53;3.47;;;13.10;99.90;;;;;;5010691;28;20436;-67
2021/05/03 16:14:30;;;;;;;6.80;4.10;;;13.20;99.90;;;;;;5014018;28;20840;-70
2021/05/03 16:16:57;;;;;;;4.70;4.30;;;13.30;99.90;;;;;;5014137;28;20503;-68
2021/05/03 16:19:25;;;;;;;2.70;2.50;;;13.10;99.90;;;;;;5013952;28;20523;-68
2021/05/03 16:21:52;;;;;;;5.30;3.50;;;12.60;99.90;;;;;;5013050;28;20451;-67
2021/05/03 16:24:19;;;;;;;3.67;3.37;;;12.60;99.90;;;;;;5013706;28;20425;-68
2021/05/03 16:26:47;;;;;;;3.60;3.30;;;12.50;99.90;;;;;;5013199;28;20403;-72
2021/05/03 16:29:15;;;;;;;5.30;3.83;;;12.30;99.90;;;;;;5013120;28;20464;-69
2021/05/03 16:31:42;;;;;;;5.83;3.10;;;12.30;99.90;;;;;;5013114;28;20380;-68
2021/05/03 16:34:09;;;;;;;3.10;2.80;;;12.30;99.90;;;;;;5012520;28;20767;-69
2021/05/03 16:36:37;;;;;;;3.17;2.87;;;12.20;99.90;;;;;;5030604;28;20428;-72
2021/05/03 16:39:05;;;;;;;3.17;2.87;;;12.40;99.90;;;;;;5032748;28;20423;-68
2021/05/03 16:41:32;;;;;;;7.73;3.63;;;12.70;99.90;;;;;;5026318;28;20422;-67
2021/05/03 16:44:00;;;;;;;4.80;3.20;;;12.60;99.90;;;;;;4995647;28;20427;-67
2021/05/03 16:46:27;;;;;;;4.00;3.43;;;12.60;99.90;;;;;;5012879;28;20398;-67
2021/05/03 16:48:55;;;;;;;4.90;3.37;;;12.60;99.90;;;;;;5013073;28;20430;-70
2021/05/03 16:51:23;;;;;;;5.70;4.20;;;12.20;99.90;;;;;;5013399;28;20464;-67
2021/05/03 16:53:51;;;;;;;4.50;4.10;;;12.30;99.90;;;;;;5013137;28;20417;-68
2021/05/03 16:56:19;;;;;;;3.70;3.23;;;12.60;99.90;;;;;;5014162;28;20432;-68
2021/05/03 16:58:47;;;;;;;4.10;3.70;;;12.70;99.90;;;;;;5012805;28;20550;-67
2021/05/03 17:01:15;;;;;;;3.60;3.30;;;13.00;99.90;;;;;;5012594;28;20768;-67
2021/05/03 17:03:42;;;;;;;4.57;3.00;;;13.20;99.90;;;;;;5012083;28;20392;-70
2021/05/03 17:06:10;;;;;;;3.70;3.40;;;13.50;99.90;;;;;;5009778;28;20511;-69
2021/05/03 17:08:38;;;;;;;4.27;3.73;;;13.70;99.90;;;;;;5012174;28;20476;-72
2021/05/03 17:11:06;;;;;;;4.70;4.17;;;13.80;99.90;;;;;;5012435;28;20428;-72
2021/05/03 17:13:34;;;;;;;9.17;3.53;;;13.80;99.90;;;;;;5012230;28;20536;-67
2021/05/03 17:16:02;;;;;;;6.70;3.40;;;13.40;99.90;;;;;;5012860;28;20436;-68
2021/05/03 17:18:30;;;;;;;3.77;3.47;;;13.40;99.90;;;;;;5012163;28;20589;-67
2021/05/03 17:20:57;;;;;;;4.70;2.80;;;13.30;99.90;;;;;;5012097;28;20435;-67
2021/05/03 17:23:24;;;;;;;4.00;3.60;;;13.30;99.90;;;;;;5012030;28;20993;-68
2021/05/03 17:25:51;;;;;;;5.97;3.80;;;13.40;99.90;;;;;;5025664;28;20468;-69
2021/05/03 17:28:18;;;;;;;4.23;3.83;;;13.10;99.90;;;;;;5014370;28;20987;-66
2021/05/03 17:30:45;;;;;;;3.37;3.07;;;12.50;99.90;;;;;;5011910;28;20519;-71
2021/05/03 17:33:13;;;;;;;3.43;2.97;;;12.40;99.90;;;;;;5011663;28;21028;-66
2021/05/03 17:35:41;;;;;;;5.10;3.47;;;12.10;99.90;;;;;;5011349;28;20421;-68
2021/05/03 17:38:08;;;;;;;4.20;3.50;;;12.00;99.90;;;;;;5025927;28;20430;-68
2021/05/03 17:40:36;;;;;;;3.20;2.40;;;11.80;99.90;;;;;;5013220;28;20957;-70
2021/05/03 17:43:03;;;;;;;3.30;2.83;;;11.80;99.90;;;;;;5011090;28;20458;-68
2021/05/03 17:45:30;;;;;;;3.23;2.93;;;11.60;99.90;;;;;;5010791;28;20407;-69
2021/05/03 17:47:57;;;;;;;3.87;3.30;;;11.60;99.90;;;;;;5010887;28;20478;-67
2021/05/03 17:50:24;;;;;;;3.57;2.77;;;11.50;99.90;;;;;;5010992;28;20497;-68
2021/05/03 17:52:52;;;;;;;4.00;2.90;;;11.60;99.90;;;;;;5010491;28;20945;-66
2021/05/03 17:55:20;;;;;;;2.97;2.70;;;11.60;99.90;;;;;;4994067;28;20419;-65
2021/05/03 17:57:47;;;;;;;4.03;3.47;;;11.60;99.90;;;;;;5011964;28;20410;-68
2021/05/03 18:00:15;;;;;;;4.10;3.30;;;11.40;99.90;;;;;;5010830;28;20949;-68
2021/05/03 18:02:42;;;;;;;4.97;4.10;;;11.20;99.90;;;;;;5012303;28;20942;-69
2021/05/03 18:05:11;;;;;;;4.03;3.40;;;11.00;99.90;;;;;;5012726;28;20380;-67
2021/05/03 18:07:40;;;;;;;4.60;3.67;;;10.80;99.90;;;;;;5012115;28;20421;-67
2021/05/03 18:10:10;;;;;;;3.93;3.00;;;10.70;99.90;;;;;;5022855;28;20944;-68
2021/05/03 18:12:38;;;;;;;5.77;3.17;;;10.60;99.90;;;;;;5010599;28;20458;-66
2021/05/03 18:15:06;;;;;;;3.20;2.60;;;10.60;99.90;;;;;;5011804;28;20459;-68
2021/05/03 18:17:33;;;;;;;6.13;3.67;;;10.60;99.90;;;;;;5011209;28;20526;-68
2021/05/03 18:20:04;;;;;;;5.27;3.73;;;10.60;99.90;;;;;;5012980;28;20441;-68
2021/05/03 18:22:32;;;;;;;4.10;3.40;;;10.70;99.90;;;;;;5013916;28;20423;-67
2021/05/03 18:24:59;;;;;;;6.40;3.42;;;10.60;99.90;;;;;;5015871;28;20849;-68
2021/05/03 18:27:27;;;;;;;4.77;4.10;;;10.50;99.90;;;;;;5013898;28;20561;-68
2021/05/03 18:29:55;;;;;;;7.80;5.05;;;10.40;99.90;;;;;;4996291;28;20469;-67
2021/05/03 18:32:45;;;;;;;5.45;4.18;;;10.30;99.90;;;;;;5014019;28;20185;-73